Deer River, New York
Current Conditions -  °F | °C
As of 7:58 AM on Thursday 30 Oct 2014 (Local Time) from KGTB Reporting Station
Overcast Overcast  
Wind Chill: 35°   Ceiling: 3400
Heat Index: 40°   Visibility: 10mi
Dew Point: 34°   Wind: 8mph
Humidity: 77%   Direction: 350°N
Pressure: 29.99"   Gusts: NA
Location:  43.93°N, 75.59°W
Report Text: KGTB 301158Z AUTO 35007KT 10SM FEW016 OVC034 05/01 A2999 RMK AO2 SLP160 T00470010 10071 20047
Loading
Personal Weather Stations






























Interactive Weather Map
Tropical Storm Tracking
New forecast layout! Learn more

10-Day Weather Forecast

Advertisements
Track Severe Weather on mobile